• Join FlightAware (Why Join?)
  • Login
  • US Flag 
01:45AM EDT


 

Airport Tracker/Info


-or-


 

Live Flight TrackerFlight Track Log ✈ SWA2182 ✈ 17-May-2013 ✈ KSMF - KSAN

Flight Track Log - Related Links

Times and Time Zones

All times are in EDT time to prevent confusion due to time zone crossing. See the SWA2182 flight status page for this flight to view local times or setup timezone preferences in your user account.

Time Position Orientation Groundspeed Altitude Reporting Facility
EDT Latitude Longitude Course Direction KTS MPH feet Rate Location/Type
09:08AM 38.6500 -121.5833 109° East 177 204 1,600  Level Northern Cal TRACON
09:09AM 38.6167 -121.5167 123° Southeast 240 276 4,200 2,580 Climbing Northern Cal TRACON
09:10AM 38.5833 -121.4333 117° Southeast 269 310 7,100 2,280 Climbing Northern Cal TRACON
09:12AM 38.5333 -121.3333 123° Southeast 295 339 9,000 1,440 Climbing Northern Cal TRACON
09:12AM 38.5211 -121.3047 119° Southeast 296 341 9,200 1,920 Climbing Oakland Center
09:13AM 38.4778 -121.2103 120° Southeast 307 353 11,600 2,580 Climbing Oakland Center
09:14AM 38.3011 -120.9604 109° East  Level FlightAware Approximate
09:14AM 38.4264 -121.1006 121° Southeast 348 400 14,500  Level Oakland Center
09:15AM 38.3731 -120.9853 121° Southeast 372 428 17,500 2,940 Climbing Oakland Center
09:16AM 38.3167 -120.8633 120° Southeast 393 452 20,500 2,700 Climbing Oakland Center
09:17AM 38.2578 -120.7369 121° Southeast 408 470 23,000 2,400 Climbing Oakland Center
09:18AM 38.1756 -120.6253 133° Southeast 428 493 25,400 2,220 Climbing Oakland Center
09:19AM 38.0792 -120.5300 142° Southeast 436 502 27,500 1,920 Climbing Oakland Center
09:20AM 37.9781 -120.4328 143° Southeast 449 517 29,300 1,680 Climbing Oakland Center
09:21AM 37.8739 -120.3342 143° Southeast 461 531 31,000 1,680 Climbing Oakland Center
09:22AM 37.7692 -120.2314 142° Southeast 472 543 32,800 1,740 Climbing Oakland Center
09:23AM 37.6639 -120.1303 143° Southeast 473 544 34,600 1,560 Climbing Oakland Center
09:24AM 37.5553 -120.0306 144° Southeast 484 557 36,000 1,320 Climbing Oakland Center
09:25AM 37.4486 -119.9322 144° Southeast 478 550 37,300 1,200 Climbing Oakland Center
09:26AM 37.3256 -119.8742 159° South 470 541 38,500 840 Climbing Oakland Center
09:27AM 37.1844 -119.8114 160° South 467 537 39,000 240 Climbing Oakland Center
09:28AM 37.0675 -119.7583 160° South 463 533 39,000  Level Oakland Center
09:29AM 36.9461 -119.7042 160° South 462 532 39,000  Level Oakland Center
09:30AM 36.8264 -119.6494 160° South 458 527 39,000  Level Oakland Center
09:31AM 36.7047 -119.5981 161° South 460 529 39,000  Level Oakland Center
09:32AM 36.5842 -119.5436 160° South 460 529 39,000  Level Oakland Center
09:33AM 36.4642 -119.4906 160° South 460 529 39,000  Level Oakland Center
09:34AM 36.3442 -119.4389 161° South 457 526 39,000  Level Oakland Center
09:35AM 36.2228 -119.3867 161° South 459 528 39,000  Level Oakland Center
09:36AM 36.1025 -119.3358 161° South 458 527 39,000  Level Oakland Center
09:37AM 35.9822 -119.2847 161° South 458 527 39,000  Level Oakland Center
09:38AM 35.8642 -119.2356 161° South 448 516 39,000  Level Oakland Center
09:39AM 35.7428 -119.1833 161° South 456 525 39,000  Level Oakland Center
09:40AM 35.6219 -119.1322 161° South 454 522 39,000  Level Los Angeles Center
09:41AM 35.4994 -119.0808 161° South 460 529 39,000  Level Los Angeles Center
09:42AM 35.3525 -119.0194 161° South 463 533 39,000  Level Los Angeles Center
09:43AM 35.2283 -118.9669 161° South 469 540 39,000  Level Los Angeles Center
09:44AM 35.1044 -118.9150 161° South 470 541 39,000  Level Los Angeles Center
09:45AM 34.9800 -118.8631 161° South 471 542 39,000  Level Los Angeles Center
09:46AM 34.8606 -118.8147 162° South 471 542 39,000  Level Los Angeles Center
09:47AM 34.7375 -118.7642 161° South 469 540 39,000  Level Los Angeles Center
09:48AM 34.6144 -118.7128 161° South 467 537 39,000  Level Los Angeles Center
09:49AM 34.4667 -118.6525 161° South 467 537 39,000  Level Los Angeles Center
09:50AM 34.3439 -118.6019 161° South 466 536 39,000  Level Los Angeles Center
09:51AM 34.2217 -118.5511 161° South 466 536 39,000  Level Los Angeles Center
09:52AM 34.0989 -118.5008 161° South 468 539 39,000 -840 Level Los Angeles Center
09:53AM 33.9775 -118.4508 161° South 462 532 37,300 -2,340 Descending Los Angeles Center
09:54AM 33.8761 -118.3572 143° Southeast 469 540 34,300 -2,940 Descending Los Angeles Center
09:56AM 33.7706 -118.2300 135° Southeast 469 540 31,300 -2,400 Descending Los Angeles Center
09:57AM 33.6939 -118.1244 131° Southeast 461 531 29,500 -2,100 Descending Los Angeles Center
09:58AM 33.6111 -118.0208 134° Southeast 437 503 27,100 -2,220 Descending Los Angeles Center
09:59AM 33.5317 -117.9186 133° Southeast 423 487 25,000 -2,040 Descending Los Angeles Center
10:00AM 33.4556 -117.8228 134° Southeast 406 467 23,000 -2,220 Descending Los Angeles Center
10:01AM 33.3636 -117.7067 133° Southeast 402 463 20,500 -2,280 Descending Los Angeles Center
10:02AM 33.2833 -117.6000 132° Southeast 397 457 18,300 -2,160 Descending Southern California TRACON
10:03AM 33.2000 -117.5333 146° Southeast 396 456 16,300 -2,040 Descending Southern California TRACON
10:04AM 33.1167 -117.4500 140° Southeast 378 435 14,300 -1,920 Descending Southern California TRACON
10:05AM 33.0333 -117.3833 146° Southeast 362 417 12,500 -1,800 Descending Southern California TRACON
10:06AM 32.9500 -117.3167 146° Southeast 338 389 10,700 -1,260 Descending Southern California TRACON
10:07AM 32.8833 -117.2667 148° Southeast 301 346 10,000 -780 Descending Southern California TRACON
10:07AM 32.8683 -117.2544 146° Southeast 320 368 9,700 -1,500 Descending Los Angeles Center
10:08AM 32.8292 -117.1456 113° Southeast 312 359 7,900 -1,680 Descending Los Angeles Center
10:09AM 32.8000 -117.0833 119° Southeast 300 345 6,900 -1,380 Descending Southern California TRACON
10:10AM 32.7667 -117.0000 115° Southeast 297 342 5,700 -1,260 Descending Southern California TRACON
10:11AM 32.7000 -116.9667 157° South 271 312 4,400 -1,440 Descending Southern California TRACON
10:12AM 32.6833 -117.0167 248° West 194 223 2,800 -1,380 Descending Southern California TRACON
10:13AM 32.7000 -117.0667 292° West 155 178 1,700 -840 Descending Southern California TRACON
10:14AM 32.7167 -117.1167 292° West 148 170 1,200 -480 Descending Southern California TRACON
10:14AM 32.7192 -117.1325 281° West 149 171 1,000 -720 Descending Los Angeles Center
10:15AM 32.7322 -117.1808 288° West 146 168 200 -780 Descending Los Angeles Center